Time;durP1;ratioP1;P1;durP2;ratioP2;P2;SDS_P1;SDS_P2;PMS_P1;PMS_P2;Temp;Humidity;BMP_temperature;BMP_pressure;BME280_temperature;BME280_humidity;BME280_pressure;Samples;Min_cycle;Max_cycle;Signal;HPM_P1;HPM_P2
2022/08/11 00:02:42;;;;;;;9.50;4.22;;;17.10;89.40;;;;;;4823702;29;20034;-54
2022/08/11 00:05:11;;;;;;;7.18;3.92;;;17.10;89.70;;;;;;4823493;29;20514;-52
2022/08/11 00:07:47;;;;;;;7.50;3.85;;;17.00;90.00;;;;;;4823567;29;20481;-55
2022/08/11 00:10:17;;;;;;;11.77;4.18;;;17.00;90.00;;;;;;4823357;29;20499;-51
2022/08/11 00:12:55;;;;;;;5.95;3.53;;;17.00;90.20;;;;;;4823344;29;20474;-54
2022/08/11 00:15:23;;;;;;;3.97;3.53;;;17.00;90.20;;;;;;4823199;29;20034;-52
2022/08/11 00:17:55;;;;;;;11.70;3.88;;;17.00;90.30;;;;;;4823328;29;20076;-52
2022/08/11 00:20:27;;;;;;;7.70;3.88;;;17.00;90.20;;;;;;4823416;29;20031;-51
2022/08/11 00:23:07;;;;;;;8.27;4.07;;;17.10;90.30;;;;;;4823340;29;20082;-53
2022/08/11 00:25:48;;;;;;;10.40;3.97;;;17.00;90.40;;;;;;4822643;29;20031;-51
2022/08/11 00:28:25;;;;;;;15.07;4.35;;;17.00;90.50;;;;;;4823062;29;20038;-54
2022/08/11 00:30:52;;;;;;;7.10;3.80;;;17.00;90.60;;;;;;4822932;29;20034;-52
2022/08/11 00:33:21;;;;;;;8.20;3.85;;;16.90;90.80;;;;;;4823123;29;20026;-52
2022/08/11 00:35:49;;;;;;;9.27;4.07;;;16.90;90.60;;;;;;4823120;29;20400;-52
2022/08/11 00:38:16;;;;;;;11.52;4.28;;;16.90;90.80;;;;;;4823024;29;20038;-52
2022/08/11 00:41:15;;;;;;;7.95;4.45;;;16.80;91.20;;;;;;4823085;29;20101;-51
2022/08/11 00:43:58;;;;;;;7.38;4.45;;;16.80;91.30;;;;;;4823112;29;20506;-52
2022/08/11 00:46:36;;;;;;;13.55;4.45;;;16.80;91.20;;;;;;4822837;29;20118;-53
2022/08/11 00:49:26;;;;;;;7.70;4.93;;;16.80;91.40;;;;;;4822797;29;20053;-52
2022/08/11 00:52:11;;;;;;;5.75;4.30;;;16.70;91.40;;;;;;4822943;29;20038;-52
2022/08/11 00:54:37;;;;;;;7.88;4.65;;;16.70;91.60;;;;;;4822647;29;20053;-52
2022/08/11 00:57:52;;;;;;;12.40;5.13;;;16.60;91.80;;;;;;4822386;29;20030;-51
2022/08/11 01:00:22;;;;;;;;;;;16.60;91.70;;;;;;4822679;29;20042;-53
2022/08/11 01:03:09;;;;;;;7.65;4.32;;;16.60;91.80;;;;;;4822464;29;19916;-52
2022/08/11 01:05:55;;;;;;;5.60;4.18;;;16.60;91.90;;;;;;4822780;29;20035;-51
2022/08/11 01:08:32;;;;;;;14.32;4.18;;;16.60;91.80;;;;;;4822671;29;20084;-52
2022/08/11 01:11:15;;;;;;;11.68;4.22;;;16.60;91.70;;;;;;4822692;29;20436;-52
2022/08/11 01:14:09;;;;;;;5.50;4.47;;;16.60;91.80;;;;;;4822463;29;20057;-52
2022/08/11 01:17:12;;;;;;;6.35;4.13;;;16.70;92.00;;;;;;4822871;29;20038;-52
2022/08/11 01:19:47;;;;;;;6.90;4.82;;;16.60;92.10;;;;;;4822565;29;20035;-54
2022/08/11 01:22:43;;;;;;;8.73;4.38;;;16.60;92.30;;;;;;4822251;29;20039;-52
2022/08/11 01:25:57;;;;;;;9.48;4.40;;;16.60;92.30;;;;;;4822831;29;20031;-51
2022/08/11 01:28:49;;;;;;;18.87;5.07;;;16.50;92.40;;;;;;4819713;29;20088;-51
2022/08/11 01:31:45;;;;;;;7.40;4.88;;;16.50;92.60;;;;;;4819206;29;20066;-52
2022/08/11 01:34:25;;;;;;;6.70;4.53;;;16.40;92.70;;;;;;4821436;29;20847;-50
2022/08/11 01:37:29;;;;;;;8.15;4.40;;;16.30;92.90;;;;;;4823157;29;20038;-53
2022/08/11 01:40:13;;;;;;;6.28;4.43;;;16.30;93.10;;;;;;4825898;29;20030;-51
2022/08/11 01:46:05;;;;;;;7.45;4.88;;;16.30;93.20;;;;;;4807710;29;20049;-52
2022/08/11 01:48:39;;;;;;;5.95;4.72;;;16.20;93.40;;;;;;4807635;29;20105;-51
2022/08/11 01:51:32;;;;;;;6.82;4.13;;;16.20;93.50;;;;;;4807573;29;20031;-51
2022/08/11 01:54:31;;;;;;;11.82;5.18;;;16.20;93.70;;;;;;4821463;29;20103;-51
2022/08/11 01:57:24;;;;;;;11.13;4.72;;;16.10;93.90;;;;;;4825327;29;20062;-51
2022/08/11 01:59:55;;;;;;;6.45;4.68;;;16.10;94.40;;;;;;4824668;29;20386;-51
2022/08/11 02:02:53;;;;;;;9.80;4.78;;;16.00;94.20;;;;;;4824185;29;20090;-51
2022/08/11 02:05:26;;;;;;;6.68;5.30;;;16.00;94.20;;;;;;4825466;29;20037;-51
2022/08/11 02:08:18;;;;;;;12.18;5.55;;;15.90;94.60;;;;;;4825392;29;20023;-54
2022/08/11 02:13:46;;;;;;;;;;;15.90;94.60;;;;;;4825696;29;20111;-51
2022/08/11 02:16:38;;;;;;;11.50;5.22;;;15.90;94.70;;;;;;4825149;29;19996;-53
2022/08/11 02:25:17;;;;;;;5.30;4.60;;;15.80;94.90;;;;;;4825376;29;20053;-53
2022/08/11 02:27:48;;;;;;;12.25;4.93;;;15.90;95.00;;;;;;4824842;29;20168;-51
2022/08/11 02:30:19;;;;;;;11.98;5.15;;;15.90;94.70;;;;;;4806868;29;20037;-52
2022/08/11 02:33:24;;;;;;;9.50;4.55;;;15.90;94.90;;;;;;4806852;29;20053;-55
2022/08/11 02:36:18;;;;;;;7.80;4.72;;;15.90;95.00;;;;;;4806485;29;20113;-50
2022/08/11 02:39:02;;;;;;;5.20;4.57;;;15.90;95.10;;;;;;4806817;29;20080;-51
2022/08/11 02:42:21;;;;;;;6.22;4.80;;;15.80;95.40;;;;;;4806890;29;20054;-51
2022/08/11 02:45:26;;;;;;;7.05;4.50;;;15.80;95.50;;;;;;4824260;29;20538;-51
2022/08/11 02:51:03;;;;;;;9.90;4.10;;;15.80;95.30;;;;;;4824608;29;19975;-52
2022/08/11 02:53:45;;;;;;;7.95;4.78;;;15.80;95.50;;;;;;4824630;29;20049;-51
2022/08/11 02:56:51;;;;;;;7.47;4.68;;;15.80;95.60;;;;;;4824478;29;20027;-51
2022/08/11 02:59:50;;;;;;;12.82;5.05;;;15.70;95.50;;;;;;4819622;29;20066;-54
2022/08/11 03:02:30;;;;;;;6.70;4.57;;;15.70;95.60;;;;;;4806454;29;20588;-51
2022/08/11 03:05:12;;;;;;;6.28;4.35;;;15.70;95.70;;;;;;4806237;29;20034;-51
2022/08/11 03:08:10;;;;;;;6.82;4.75;;;15.80;95.70;;;;;;4806076;29;20019;-51
2022/08/11 03:10:43;;;;;;;7.93;5.07;;;15.70;95.80;;;;;;4805102;29;20034;-50
2022/08/11 03:16:47;;;;;;;9.32;4.13;;;15.70;96.20;;;;;;4824666;29;20041;-51
2022/08/11 03:19:22;;;;;;;7.28;4.35;;;15.60;96.20;;;;;;4824121;29;20065;-51
2022/08/11 03:21:55;;;;;;;6.32;5.20;;;15.60;96.30;;;;;;4824251;29;20498;-52
2022/08/11 03:24:45;;;;;;;8.65;5.00;;;15.50;96.40;;;;;;4824189;29;20030;-54
2022/08/11 03:27:52;;;;;;;8.25;4.68;;;15.50;96.70;;;;;;4823886;29;20030;-51
2022/08/11 03:30:36;;;;;;;10.95;4.85;;;15.40;96.70;;;;;;4823034;29;20383;-51
2022/08/11 03:36:14;;;;;;;14.15;5.05;;;15.40;97.00;;;;;;4822978;29;20037;-52
2022/08/11 03:38:51;;;;;;;14.70;5.60;;;15.40;97.20;;;;;;4821786;29;20087;-52
2022/08/11 03:41:46;;;;;;;5.82;4.95;;;15.40;97.20;;;;;;4822500;29;20030;-51
2022/08/11 03:44:34;;;;;;;11.10;5.15;;;15.30;97.50;;;;;;4804551;29;20561;-51
2022/08/11 03:47:08;;;;;;;12.50;5.55;;;15.20;97.80;;;;;;4804258;29;20092;-52
2022/08/11 03:49:59;;;;;;;7.35;4.90;;;15.20;97.70;;;;;;4805406;29;20046;-52
2022/08/11 03:52:28;;;;;;;11.43;5.47;;;15.20;97.90;;;;;;4805248;29;20027;-51
2022/08/11 03:55:21;;;;;;;5.78;4.40;;;15.20;98.00;;;;;;4805249;29;20027;-53
2022/08/11 03:58:11;;;;;;;7.77;5.07;;;15.20;98.00;;;;;;4817549;29;20383;-53
2022/08/11 04:01:04;;;;;;;10.45;5.47;;;15.20;98.10;;;;;;4822959;29;20105;-49
2022/08/11 04:03:49;;;;;;;12.30;4.95;;;15.20;98.20;;;;;;4823599;29;20583;-49
2022/08/11 04:06:46;;;;;;;7.30;5.43;;;15.30;98.40;;;;;;4823369;29;20034;-50
2022/08/11 04:09:46;;;;;;;8.10;4.65;;;15.20;98.40;;;;;;4823459;29;20033;-50
2022/08/11 04:12:30;;;;;;;6.90;5.78;;;15.20;98.50;;;;;;4821570;29;20385;-50
2022/08/11 04:18:05;;;;;;;12.80;5.72;;;15.20;98.70;;;;;;4822869;29;19916;-52
2022/08/11 04:20:40;;;;;;;7.28;5.53;;;15.20;98.80;;;;;;4822928;29;20410;-50
2022/08/11 04:23:27;;;;;;;11.75;5.22;;;15.20;98.70;;;;;;4823225;29;20030;-52
2022/08/11 04:26:12;;;;;;;13.57;5.18;;;15.20;98.80;;;;;;4822904;29;20038;-50
2022/08/11 04:28:57;;;;;;;6.88;5.18;;;15.30;98.70;;;;;;4822939;29;20031;-51
2022/08/11 04:31:39;;;;;;;14.75;4.68;;;15.30;98.90;;;;;;4823230;29;20045;-52
2022/08/11 04:34:34;;;;;;;5.43;4.63;;;15.30;98.80;;;;;;4823040;29;20041;-50
2022/08/11 04:37:33;;;;;;;16.23;5.30;;;15.40;98.90;;;;;;4822761;29;20030;-50
2022/08/11 04:40:55;;;;;;;20.10;5.18;;;15.40;98.80;;;;;;4822920;29;20026;-50
2022/08/11 04:43:40;;;;;;;9.35;4.75;;;15.40;98.90;;;;;;4802033;29;20043;-50
2022/08/11 04:46:39;;;;;;;7.88;5.10;;;15.50;99.00;;;;;;4801879;29;20761;-49
2022/08/11 05:01:41;;;;;;;7.47;4.70;;;15.90;98.30;;;;;;4803486;29;20041;-50
2022/08/11 05:07:57;;;;;;;6.95;4.63;;;16.00;98.20;;;;;;4803237;29;20046;-50
2022/08/11 05:10:54;;;;;;;5.88;4.75;;;16.10;98.10;;;;;;4802112;29;20050;-50
2022/08/11 05:37:31;;;;;;;11.68;4.68;;;16.50;97.00;;;;;;4824607;29;20494;-50
2022/08/11 05:57:07;;;;;;;10.38;4.68;;;16.90;96.60;;;;;;4824501;29;20057;-50
2022/08/11 05:59:33;;;;;;;8.00;4.68;;;17.00;96.30;;;;;;4824142;29;20042;-51
2022/08/11 06:02:04;;;;;;;6.45;4.38;;;17.10;96.60;;;;;;4824184;29;20053;-49
2022/08/11 06:04:31;;;;;;;5.63;4.03;;;17.10;96.00;;;;;;4823035;29;20086;-51
2022/08/11 06:07:04;;;;;;;7.35;5.05;;;17.10;96.20;;;;;;4823956;29;20310;-51
2022/08/11 06:09:36;;;;;;;6.55;4.05;;;17.20;96.10;;;;;;4824183;29;20030;-50
2022/08/11 06:12:07;;;;;;;7.65;4.93;;;17.30;95.90;;;;;;4823985;29;20041;-51
2022/08/11 06:14:34;;;;;;;4.78;4.15;;;17.40;96.00;;;;;;4823588;29;20053;-51
2022/08/11 06:17:04;;;;;;;12.73;5.10;;;17.50;96.00;;;;;;4823963;29;20383;-49
2022/08/11 06:19:33;;;;;;;9.93;5.35;;;17.50;96.10;;;;;;4823983;29;20023;-49
2022/08/11 06:22:01;;;;;;;10.55;4.25;;;17.60;96.00;;;;;;4823851;29;20479;-51
2022/08/11 06:24:28;;;;;;;9.38;4.35;;;17.60;95.90;;;;;;4823008;29;20058;-51
2022/08/11 06:26:55;;;;;;;8.52;4.20;;;17.60;95.60;;;;;;4823663;29;20037;-51
2022/08/11 06:29:22;;;;;;;7.82;4.22;;;17.70;95.90;;;;;;4823487;29;20038;-50
2022/08/11 06:31:58;;;;;;;5.47;3.38;;;17.80;96.00;;;;;;4823543;29;20019;-51
2022/08/11 06:34:40;;;;;;;15.05;5.13;;;17.90;95.50;;;;;;4823776;29;20521;-50
2022/08/11 06:37:18;;;;;;;9.45;3.85;;;18.00;95.50;;;;;;4823309;29;20410;-51
2022/08/11 06:40:10;;;;;;;10.48;3.95;;;18.10;94.90;;;;;;4822017;29;20539;-50
2022/08/11 06:43:00;;;;;;;8.68;3.95;;;18.10;95.30;;;;;;4820294;29;20461;-50
2022/08/11 06:45:26;;;;;;;5.18;4.18;;;18.30;94.50;;;;;;4820033;29;20030;-50
2022/08/11 06:47:53;;;;;;;8.27;3.80;;;18.30;94.80;;;;;;4820220;29;20023;-49
2022/08/11 06:53:09;;;;;;;4.47;3.88;;;18.40;94.50;;;;;;4820926;29;20033;-49
2022/08/11 07:01:13;;;;;;;9.10;4.30;;;18.70;94.40;;;;;;4822991;29;20042;-49
2022/08/11 07:03:56;;;;;;;25.63;4.38;;;18.80;94.20;;;;;;4823449;29;20473;-49
2022/08/11 07:06:37;;;;;;;7.10;4.13;;;18.90;94.00;;;;;;4805034;29;20075;-50
2022/08/11 07:29:11;;;;;;;11.80;4.28;;;19.30;92.30;;;;;;4823036;29;20037;-50
2022/08/11 07:31:45;;;;;;;10.57;3.85;;;19.40;92.80;;;;;;4822928;29;20033;-49
2022/08/11 07:34:29;;;;;;;9.05;3.58;;;19.40;92.60;;;;;;4821254;29;20432;-50
2022/08/11 07:36:58;;;;;;;7.95;3.90;;;19.60;92.80;;;;;;4804669;29;20424;-50
2022/08/11 07:39:30;;;;;;;12.52;4.10;;;19.70;92.50;;;;;;4804593;29;20035;-49
2022/08/11 07:41:59;;;;;;;5.22;3.88;;;19.80;92.60;;;;;;4804437;29;20035;-49
2022/08/11 07:44:29;;;;;;;11.98;3.88;;;20.00;92.10;;;;;;4804328;29;20443;-53
2022/08/11 07:52:32;;;;;;;12.85;3.60;;;20.10;91.30;;;;;;4822792;29;20037;-52
2022/08/11 07:55:10;;;;;;;10.38;3.55;;;20.30;91.60;;;;;;4822394;29;20490;-49
2022/08/11 08:19:43;;;;;;;7.38;3.92;;;21.40;90.80;;;;;;4817364;29;20123;-50
2022/08/11 08:22:10;;;;;;;8.05;3.22;;;21.40;90.00;;;;;;4822040;29;20046;-50
2022/08/11 08:24:40;;;;;;;17.65;3.55;;;21.50;89.90;;;;;;4820823;29;20034;-50
2022/08/11 08:27:08;;;;;;;11.52;3.70;;;21.60;89.80;;;;;;4821717;29;20031;-50
2022/08/11 08:32:22;;;;;;;9.02;4.80;;;21.60;88.00;;;;;;4822222;29;20426;-50
2022/08/11 08:34:54;;;;;;;9.02;3.63;;;21.60;87.90;;;;;;4821805;29;20026;-53
2022/08/11 08:37:28;;;;;;;7.68;3.55;;;21.80;89.90;;;;;;4822287;29;20037;-50
2022/08/11 08:39:54;;;;;;;14.63;3.72;;;21.90;87.30;;;;;;4820658;29;20054;-49
2022/08/11 08:42:31;;;;;;;7.13;3.90;;;21.70;85.70;;;;;;4821819;29;20038;-50
2022/08/11 08:45:10;;;;;;;7.28;3.40;;;21.80;86.80;;;;;;4821787;29;20030;-50
2022/08/11 08:47:40;;;;;;;17.02;4.88;;;21.90;84.70;;;;;;4819748;29;20076;-50
2022/08/11 08:50:10;;;;;;;20.02;3.13;;;21.90;84.80;;;;;;4821957;29;20041;-50
2022/08/11 08:52:44;;;;;;;5.63;2.05;;;22.00;85.10;;;;;;4821832;29;20030;-50
2022/08/11 08:55:18;;;;;;;5.30;2.53;;;22.40;84.40;;;;;;4821603;29;20424;-49
2022/08/11 08:57:47;;;;;;;5.95;3.17;;;22.40;82.20;;;;;;4821855;29;20027;-49
2022/08/11 09:00:16;;;;;;;15.63;3.30;;;22.50;83.40;;;;;;4821586;29;20170;-50
2022/08/11 09:02:43;;;;;;;4.72;2.88;;;22.70;83.90;;;;;;4821496;29;20042;-49
2022/08/11 09:05:10;;;;;;;7.15;2.65;;;22.80;83.50;;;;;;4821451;29;20031;-50
2022/08/11 09:07:36;;;;;;;5.75;2.47;;;23.00;85.30;;;;;;4821688;29;20030;-51
2022/08/11 09:10:04;;;;;;;6.50;2.50;;;23.30;81.90;;;;;;4821371;29;20117;-50
2022/08/11 09:12:33;;;;;;;5.55;2.53;;;23.10;79.00;;;;;;4821369;29;20126;-49
2022/08/11 09:15:02;;;;;;;11.98;3.03;;;23.40;78.80;;;;;;4821274;29;20726;-50
2022/08/11 09:17:44;;;;;;;3.55;2.53;;;23.40;78.00;;;;;;4821085;29;20023;-51
2022/08/11 09:20:19;;;;;;;7.40;2.63;;;23.60;79.60;;;;;;4821212;29;20027;-48
2022/08/11 09:28:19;;;;;;;4.70;2.58;;;23.60;76.00;;;;;;4821312;29;20033;-51
2022/08/11 09:30:52;;;;;;;4.22;2.58;;;23.60;77.20;;;;;;4821016;29;20042;-49
2022/08/11 09:33:19;;;;;;;6.60;2.15;;;23.80;73.70;;;;;;4821082;29;20479;-49
2022/08/11 09:35:47;;;;;;;8.43;2.35;;;23.70;74.90;;;;;;4820041;29;20045;-50
2022/08/11 09:41:04;;;;;;;6.93;2.53;;;23.80;72.40;;;;;;4821168;29;20275;-49
2022/08/11 09:46:15;;;;;;;2.55;1.77;;;24.20;74.20;;;;;;4821017;29;20159;-50
2022/08/11 09:48:43;;;;;;;5.25;2.30;;;24.50;74.20;;;;;;4821880;29;20027;-52
2022/08/11 09:51:10;;;;;;;7.25;2.38;;;24.60;74.20;;;;;;4801092;29;20031;-50
2022/08/11 09:53:42;;;;;;;5.45;2.67;;;24.90;73.70;;;;;;4792000;29;20063;-51
2022/08/11 09:59:00;;;;;;;8.05;2.78;;;25.10;71.90;;;;;;4813316;29;20045;-50
2022/08/11 10:01:30;;;;;;;6.25;3.00;;;25.00;71.00;;;;;;4814643;29;20115;-52
2022/08/11 10:04:17;;;;;;;3.50;2.10;;;25.20;71.30;;;;;;4796975;29;20124;-52
2022/08/11 10:07:02;;;;;;;6.00;2.20;;;25.10;69.90;;;;;;4813879;29;20035;-54
2022/08/11 10:09:47;;;;;;;7.43;2.28;;;25.30;69.10;;;;;;4801854;29;20054;-52
2022/08/11 10:12:21;;;;;;;10.10;2.42;;;25.00;67.40;;;;;;4814180;29;20121;-51
2022/08/11 10:18:40;;;;;;;8.60;2.15;;;25.40;70.00;;;;;;4806241;29;20162;-53
2022/08/11 10:20:30;;;;;;;11.60;2.08;;;25.70;68.40;;;;;;4796885;29;20046;-53
2022/08/11 10:28:28;;;;;;;5.50;2.00;;;26.20;65.20;;;;;;4813975;29;20150;-50
2022/08/11 10:33:59;;;;;;;5.40;1.45;;;26.30;65.70;;;;;;4798860;29;20045;-50
2022/08/11 10:36:29;;;;;;;6.78;1.77;;;26.30;64.70;;;;;;4814096;29;20038;-54
2022/08/11 10:38:56;;;;;;;6.88;1.90;;;26.60;65.10;;;;;;4814303;29;20053;-50
2022/08/11 10:44:10;;;;;;;5.53;1.83;;;26.50;62.30;;;;;;4813282;29;20061;-52
2022/08/11 10:49:25;;;;;;;3.75;2.03;;;26.30;62.30;;;;;;4812722;29;20053;-51
2022/08/11 11:00:14;;;;;;;4.82;1.73;;;26.40;63.50;;;;;;4813826;29;20175;-49
2022/08/11 11:02:42;;;;;;;10.25;1.65;;;26.40;61.10;;;;;;4801781;29;20513;-53
2022/08/11 11:05:14;;;;;;;2.72;1.60;;;26.70;61.50;;;;;;4812784;29;20034;-54
2022/08/11 11:08:51;;;;;;;6.82;1.90;;;27.20;64.70;;;;;;4813368;29;20257;-51
2022/08/11 11:10:57;;;;;;;4.70;1.85;;;27.40;61.70;;;;;;4812680;29;20090;-51
2022/08/11 11:17:54;;;;;;;11.02;2.22;;;27.60;62.20;;;;;;4795091;29;20126;-50
2022/08/11 11:19:10;;;;;;;2.42;1.80;;;27.80;60.00;;;;;;4801768;29;20057;-51
2022/08/11 11:21:37;;;;;;;4.45;2.00;;;27.80;60.30;;;;;;4804279;29;20035;-53
2022/08/11 11:24:36;;;;;;;6.30;2.67;;;28.00;61.10;;;;;;4794959;29;20038;-53
2022/08/11 11:27:16;;;;;;;3.50;1.88;;;28.20;59.60;;;;;;4800269;29;20047;-52
2022/08/11 11:30:01;;;;;;;7.30;1.80;;;28.00;61.40;;;;;;4811243;29;20122;-49
2022/08/11 11:32:48;;;;;;;5.75;1.70;;;27.90;57.90;;;;;;4821873;29;20113;-49
2022/08/11 11:35:25;;;;;;;6.97;1.35;;;27.60;57.70;;;;;;4821634;29;20406;-50
2022/08/11 11:37:52;;;;;;;8.23;1.88;;;28.10;59.30;;;;;;4821690;29;20027;-49
2022/08/11 11:40:21;;;;;;;8.70;2.10;;;28.30;57.40;;;;;;4822564;29;20031;-53
2022/08/11 11:42:49;;;;;;;5.38;1.90;;;28.50;58.20;;;;;;4822758;29;20268;-49
2022/08/11 11:45:17;;;;;;;2.20;1.95;;;28.50;58.70;;;;;;4822297;29;20114;-50
2022/08/11 11:47:43;;;;;;;4.68;2.30;;;28.60;57.60;;;;;;4821516;29;20033;-50
2022/08/11 11:50:11;;;;;;;4.70;2.38;;;29.10;57.60;;;;;;4820663;29;20429;-50
2022/08/11 11:52:39;;;;;;;4.97;1.70;;;29.90;56.10;;;;;;4821141;29;20094;-50
2022/08/11 11:55:06;;;;;;;4.57;1.60;;;30.80;56.70;;;;;;4820946;29;20521;-50
2022/08/11 12:03:10;;;;;;;8.30;1.70;;;31.80;51.20;;;;;;4821968;29;20037;-51
2022/08/11 12:05:36;;;;;;;;;;;32.20;51.30;;;;;;4822933;29;20399;-51
2022/08/11 12:08:13;;;;;;;6.70;1.60;;;32.30;48.60;;;;;;4822214;29;20327;-51
2022/08/11 12:10:43;;;;;;;8.65;2.13;;;32.90;49.80;;;;;;4822298;29;20030;-50
2022/08/11 12:15:54;;;;;;;4.10;1.50;;;34.00;47.40;;;;;;4804050;29;20046;-51
2022/08/11 12:18:20;;;;;;;3.03;1.58;;;34.00;46.60;;;;;;4804012;29;20023;-53
2022/08/11 12:20:46;;;;;;;7.82;1.73;;;33.60;46.60;;;;;;4803716;29;20102;-51
2022/08/11 12:28:44;;;;;;;7.00;1.98;;;34.30;46.10;;;;;;4810128;29;20061;-50
2022/08/11 12:31:10;;;;;;;28.20;2.25;;;34.20;45.50;;;;;;4821887;29;20087;-52
2022/08/11 12:33:40;;;;;;;8.75;2.10;;;34.60;47.40;;;;;;4822010;29;20027;-50
2022/08/11 12:36:08;;;;;;;7.90;1.58;;;35.00;44.80;;;;;;4821751;29;20432;-55
2022/08/11 12:38:35;;;;;;;5.10;2.00;;;34.10;43.50;;;;;;4821880;29;20054;-51
2022/08/11 12:46:36;;;;;;;11.10;2.28;;;32.90;45.20;;;;;;4822847;29;20064;-53
2022/08/11 12:52:13;;;;;;;4.18;1.40;;;34.00;45.90;;;;;;4823159;29;20042;-53
2022/08/11 12:54:44;;;;;;;4.95;1.48;;;35.00;43.60;;;;;;4822780;29;20031;-50
2022/08/11 13:05:55;;;;;;;3.38;1.23;;;34.10;43.00;;;;;;4823096;29;20618;-52
2022/08/11 13:08:23;;;;;;;2.30;1.10;;;33.50;44.60;;;;;;4822833;29;20379;-51
2022/08/11 13:13:37;;;;;;;9.15;1.75;;;32.20;44.40;;;;;;4822743;29;20072;-50
2022/08/11 13:16:04;;;;;;;12.93;1.90;;;32.60;45.00;;;;;;4822547;29;20038;-51
2022/08/11 13:18:29;;;;;;;1.85;1.25;;;32.60;45.30;;;;;;4822629;29;20371;-51
2022/08/11 13:20:56;;;;;;;4.10;1.80;;;32.20;44.70;;;;;;4822508;29;20034;-50
2022/08/11 13:23:24;;;;;;;5.85;1.83;;;31.90;45.50;;;;;;4822623;29;20030;-52
2022/08/11 13:25:53;;;;;;;5.85;1.58;;;32.20;46.60;;;;;;4822237;29;20118;-54
2022/08/11 13:28:21;;;;;;;6.65;1.85;;;33.00;45.30;;;;;;4822526;29;20105;-53
2022/08/11 13:33:50;;;;;;;4.97;2.00;;;33.80;46.40;;;;;;4824597;29;20033;-50
2022/08/11 13:36:22;;;;;;;5.20;1.58;;;33.80;44.50;;;;;;4825932;29;20030;-52
2022/08/11 13:38:48;;;;;;;10.75;1.88;;;33.70;43.20;;;;;;4825795;29;20053;-50
2022/08/11 13:44:01;;;;;;;4.72;1.80;;;33.90;43.20;;;;;;4825985;29;20094;-55
2022/08/11 13:46:27;;;;;;;8.45;1.88;;;33.90;43.80;;;;;;4825788;29;20398;-53
2022/08/11 13:48:55;;;;;;;3.92;1.55;;;34.20;44.10;;;;;;4825625;29;20035;-53
2022/08/11 13:51:29;;;;;;;6.30;1.50;;;33.90;42.70;;;;;;4825861;29;20021;-53
2022/08/11 13:54:20;;;;;;;3.50;1.27;;;34.10;44.40;;;;;;4825435;29;20037;-50
2022/08/11 13:56:50;;;;;;;9.18;1.98;;;35.50;42.00;;;;;;4825091;29;20043;-52
2022/08/11 13:59:21;;;;;;;15.45;1.98;;;35.10;43.50;;;;;;4825448;29;20064;-54
2022/08/11 14:01:52;;;;;;;9.85;1.90;;;35.10;41.20;;;;;;4825703;29;20034;-51
2022/08/11 14:04:32;;;;;;;5.10;1.83;;;36.00;41.10;;;;;;4825272;29;20171;-53
2022/08/11 14:06:59;;;;;;;5.10;1.33;;;36.00;41.10;;;;;;4824007;29;20041;-55
2022/08/11 14:09:33;;;;;;;11.73;2.05;;;35.60;41.50;;;;;;4825233;29;20023;-52
2022/08/11 14:14:51;;;;;;;4.10;2.00;;;35.20;41.90;;;;;;4825227;29;20460;-55
2022/08/11 14:17:20;;;;;;;5.97;2.22;;;35.50;41.30;;;;;;4825187;29;20038;-50
2022/08/11 14:19:49;;;;;;;8.60;2.10;;;36.00;40.80;;;;;;4825300;29;20355;-53
2022/08/11 14:22:16;;;;;;;20.52;1.92;;;36.20;41.10;;;;;;4825015;29;20086;-52
2022/08/11 14:24:48;;;;;;;6.60;1.20;;;35.90;39.60;;;;;;4824757;29;20042;-52
2022/08/11 14:27:16;;;;;;;12.15;1.77;;;36.20;40.00;;;;;;4824876;29;20045;-52
2022/08/11 14:29:42;;;;;;;4.47;1.38;;;36.10;40.10;;;;;;4825018;29;20038;-53
2022/08/11 14:32:13;;;;;;;3.22;1.15;;;36.20;40.40;;;;;;4824980;29;20041;-56
2022/08/11 14:34:41;;;;;;;5.38;1.42;;;36.60;40.00;;;;;;4824892;29;20026;-54
2022/08/11 14:37:14;;;;;;;8.23;1.70;;;36.70;39.20;;;;;;4824875;29;20075;-54
2022/08/11 14:39:53;;;;;;;10.18;1.90;;;36.40;40.40;;;;;;4824763;29;20340;-53
2022/08/11 14:47:56;;;;;;;6.25;1.58;;;36.30;38.70;;;;;;4824845;29;20049;-51
2022/08/11 14:50:26;;;;;;;1.98;1.40;;;36.50;38.60;;;;;;4824583;29;20428;-57
2022/08/11 14:52:55;;;;;;;2.65;1.23;;;36.00;38.10;;;;;;4824426;29;20077;-55
2022/08/11 14:58:10;;;;;;;5.30;1.70;;;36.50;36.70;;;;;;4824893;29;20096;-52
2022/08/11 15:00:36;;;;;;;4.07;1.10;;;35.60;38.80;;;;;;4824687;29;20364;-55
2022/08/11 15:03:10;;;;;;;5.82;1.30;;;35.90;36.80;;;;;;4824508;29;20034;-54
2022/08/11 15:05:44;;;;;;;8.15;0.90;;;35.90;37.30;;;;;;4824533;29;20038;-55
2022/08/11 15:08:13;;;;;;;8.07;1.30;;;35.90;37.10;;;;;;4823937;29;20675;-52
2022/08/11 15:10:39;;;;;;;4.90;1.40;;;35.60;37.40;;;;;;4824470;29;20473;-55
2022/08/11 15:13:05;;;;;;;3.80;1.08;;;35.40;36.90;;;;;;4824232;29;20145;-55
2022/08/11 15:18:19;;;;;;;13.80;1.40;;;35.00;37.40;;;;;;4824236;29;20046;-54
2022/08/11 15:37:25;;;;;;;8.35;1.42;;;35.00;37.00;;;;;;4824125;29;20100;-51
2022/08/11 15:37:34;;;;;;;5.95;1.02;;;34.80;38.00;;;;;;4824126;29;20524;-53
2022/08/11 15:46:01;;;;;;;13.35;1.52;;;34.80;38.00;;;;;;4824151;29;20053;-53
2022/08/11 15:48:56;;;;;;;1.85;1.00;;;34.70;37.60;;;;;;4823866;29;20109;-55
2022/08/11 15:51:46;;;;;;;5.32;1.50;;;35.10;37.10;;;;;;4823090;29;20041;-50
2022/08/11 15:54:17;;;;;;;5.38;1.70;;;34.50;36.50;;;;;;4823707;29;20037;-50
2022/08/11 15:56:47;;;;;;;5.57;1.30;;;33.70;37.30;;;;;;4823776;29;20034;-50
2022/08/11 16:04:47;;;;;;;4.85;1.40;;;32.30;37.50;;;;;;4823395;29;20064;-49
2022/08/11 16:07:15;;;;;;;11.38;1.83;;;31.40;39.10;;;;;;4823113;29;20030;-50
2022/08/11 16:09:46;;;;;;;1.73;1.23;;;31.00;40.40;;;;;;4823713;29;20360;-53
2022/08/11 16:12:18;;;;;;;3.00;1.50;;;30.90;40.10;;;;;;4823446;29;20054;-51
2022/08/11 16:17:47;;;;;;;3.85;1.77;;;32.30;39.50;;;;;;4823476;29;20041;-50
2022/08/11 16:20:18;;;;;;;1.80;1.38;;;32.30;39.10;;;;;;4823305;29;20072;-54
2022/08/11 16:22:47;;;;;;;2.30;1.52;;;32.20;39.20;;;;;;4823334;29;20137;-54
2022/08/11 16:25:22;;;;;;;5.95;1.58;;;32.20;38.40;;;;;;4823113;29;20062;-54
2022/08/11 16:27:56;;;;;;;4.00;1.10;;;31.70;39.40;;;;;;4823124;29;20360;-53
2022/08/11 16:30:22;;;;;;;2.38;1.35;;;30.70;40.10;;;;;;4823245;29;20037;-50
2022/08/11 16:32:51;;;;;;;4.57;1.48;;;29.50;40.80;;;;;;4823160;29;20109;-52
2022/08/11 16:40:53;;;;;;;3.78;1.50;;;28.90;42.50;;;;;;4823188;29;20116;-53
2022/08/11 16:46:58;;;;;;;3.15;1.50;;;28.20;42.90;;;;;;4822929;29;20040;-51
2022/08/11 16:49:10;;;;;;;4.18;1.42;;;27.90;43.70;;;;;;4822768;29;20060;-52
2022/08/11 16:51:36;;;;;;;2.45;1.50;;;27.60;44.30;;;;;;4823047;29;20030;-52
2022/08/11 16:54:02;;;;;;;4.80;1.70;;;27.60;44.30;;;;;;4822687;29;20113;-50
2022/08/11 16:56:35;;;;;;;4.45;1.60;;;27.70;44.70;;;;;;4822818;29;20557;-51
2022/08/11 16:59:15;;;;;;;9.02;1.08;;;27.80;46.40;;;;;;4822856;29;20087;-53
2022/08/11 17:01:58;;;;;;;5.13;1.67;;;28.10;45.50;;;;;;4820576;29;20047;-51
2022/08/11 17:13:09;;;;;;;2.33;1.15;;;27.40;46.80;;;;;;4801057;29;20095;-49
2022/08/11 17:18:41;;;;;;;7.60;1.20;;;27.00;48.00;;;;;;4801159;29;20074;-51
2022/08/11 17:21:16;;;;;;;8.57;1.73;;;26.60;48.20;;;;;;4813335;29;20037;-49
2022/08/11 17:23:48;;;;;;;6.80;1.60;;;26.40;51.30;;;;;;4819268;29;20031;-53
2022/08/11 17:26:57;;;;;;;6.85;1.48;;;26.30;50.40;;;;;;4818985;29;20127;-53
2022/08/11 17:29:29;;;;;;;4.75;1.52;;;26.20;51.50;;;;;;4819549;29;20417;-49
2022/08/11 17:37:33;;;;;;;2.08;1.55;;;25.60;53.80;;;;;;4819496;29;20041;-50
2022/08/11 17:40:03;;;;;;;10.95;1.83;;;25.40;55.10;;;;;;4818871;29;20046;-52
2022/08/11 17:48:24;;;;;;;2.33;1.52;;;25.10;56.10;;;;;;4818825;29;20037;-49
2022/08/11 17:51:05;;;;;;;13.63;1.67;;;25.00;57.30;;;;;;4818976;29;20041;-53
2022/08/11 18:03:28;;;;;;;6.68;2.10;;;24.30;62.80;;;;;;4818425;29;20102;-50
2022/08/11 18:04:49;;;;;;;6.28;1.88;;;24.10;62.60;;;;;;4818890;29;20046;-49
